Surface/Precipitation History
02/27/2015 06:56  to  2/28/2015 06:56
Change End Date:
Date/Time
(MST)
Sf
Temp Chem Water Layer Surface Precipitation
Sf Sub Frz Factor Pct Depth IcePct Cond Salin Type Intens Accum Rate
02/28/2015 06:37 Ice Warning 10.4F - 32F 25 1% - 99% 0 mhos 150 None None - -
02/28/2015 06:34 Ice Warning 10.6F - 32F 25 0% - 99% 0 mhos 149 Yes - - -
02/28/2015 06:24 Ice Warning 10.8F - 32F 25 0% - 99% 0 mhos 150 None None - -
02/28/2015 06:14 Ice Warning 10.8F - 32F 25 0% - 99% 0 mhos 149 Yes - - -
02/28/2015 06:04 Ice Warning 10.8F - 32F 25 0% - 99% 0 mhos 150 Yes - - -
02/28/2015 06:01 Ice Warning 10.8F - 32F 25 0% - 99% 0 mhos 149 Yes - - -
02/28/2015 05:54 Ice Warning 10.8F - 32F 30 0% - 99% 0 mhos 149 Yes - - -
02/28/2015 05:44 Ice Warning 10.9F - 32F 30 0% - 99% 0 mhos 148 Yes - - -
02/28/2015 05:34 Ice Warning 11.1F - 32F 30 0% - 99% 0 mhos 148 Yes - - -
02/28/2015 05:31 Ice Warning 11.3F - 32F 30 0% - 99% 0 mhos 146 Yes - - -
02/28/2015 05:24 Ice Warning 11.3F - 32F 30 0% - 99% 0 mhos 148 None None - -
02/28/2015 05:14 Ice Warning 11.3F - 32F 30 0% - 99% 0 mhos 148 Yes - - -
02/28/2015 05:04 Ice Warning 11.1F - 32F 30 0% - 99% 0 mhos 149 Yes - - -
02/28/2015 05:01 Ice Warning 11.3F - 32F 30 0% - 99% 0 mhos 149 Yes - - -
02/28/2015 04:54 Ice Warning 11.3F - 32F 30 0% - 99% 0 mhos 148 Yes - - -
Date/Time
(MST)
Sf
Temp Chem Water Layer Surface Precipitation
Sf Sub Frz Factor Pct Depth IcePct Cond Salin Type Intens Accum Rate
02/28/2015 04:44 Ice Warning 11.1F - 32F 30 1% - 99% 0 mhos 151 None None - -
02/28/2015 04:44 Ice Warning 11.1F - 32F 30 1% - 99% 0 mhos 150 None None - -
02/28/2015 04:34 Ice Warning 11.3F - 32F 30 0% - 99% 0 mhos 150 None None - -
02/28/2015 04:31 Ice Warning 11.1F - 32F 35 1% - 99% 0 mhos 152 None None - -
02/28/2015 04:24 Ice Warning 11.3F - 32F 30 1% - 99% 0 mhos 150 Yes - - -
02/28/2015 04:14 Ice Warning 11.3F - 32F 35 1% - 99% 0 mhos 151 Yes - - -
02/28/2015 04:14 Ice Warning 11.1F - 32F 35 1% - 99% 0 mhos 152 Yes - - -
02/28/2015 04:04 Ice Warning 11.1F - 32F 35 1% - 99% 0 mhos 152 Yes - - -
02/28/2015 04:01 Ice Warning 11.1F - 32F 30 1% - 99% 0 mhos 152 Yes - - -
02/28/2015 03:54 Ice Warning 11.3F - 32F 35 1% - 99% 0 mhos 150 Yes - - -
02/28/2015 03:44 Ice Warning 11.3F - 32F 35 0% - 99% 0 mhos 150 Yes - - -
02/28/2015 03:34 Ice Warning 11.3F - 32F 35 1% - 99% 0 mhos 153 Yes - - -
02/28/2015 03:31 Ice Warning 11.3F - 32F 40 1% - 99% 0 mhos 153 Yes - - -
02/28/2015 03:24 Ice Warning 11.3F - 32F 35 1% - 99% 0 mhos 151 Yes - - -
02/28/2015 03:14 Ice Warning 11.3F - 32F 40 1% - 99% 0 mhos 151 Yes - - -
Date/Time
(MST)
Sf
Temp Chem Water Layer Surface Precipitation
Sf Sub Frz Factor Pct Depth IcePct Cond Salin Type Intens Accum Rate
02/28/2015 03:04 Ice Warning 11.5F - 32F 40 0% - 99% 0 mhos 149 Yes - - -
02/28/2015 03:01 Ice Warning 11.3F - 32F 40 1% - 99% 0 mhos 152 Yes - - -
02/28/2015 02:54 Ice Warning 11.3F - 32F 40 1% - 99% 0 mhos 154 Yes - - -
02/28/2015 02:44 Ice Warning 11.3F - 32F 40 1% - 99% 0 mhos 154 Yes - - -
02/28/2015 02:34 Ice Warning 11.3F - 32F 40 1% - 99% 0 mhos 153 Yes - - -
02/28/2015 02:31 Ice Warning 11.3F - 32F 40 1% - 99% 0 mhos 154 Yes - - -
02/28/2015 02:24 Ice Warning 11.3F - 32F 40 1% - 99% 0 mhos 154 Yes - - -
02/28/2015 02:14 Ice Warning 11.3F - 32F 40 1% - 99% 0 mhos 155 Yes - - -
02/28/2015 02:06 Ice Warning 11.5F - 32F 45 1% - 99% 0 mhos 153 Yes - - -
02/28/2015 02:04 Ice Warning 11.7F - 32F 45 1% - 99% 0 mhos 151 None None - -
02/28/2015 01:54 Ice Warning 11.7F - 32F 45 1% - 99% 0 mhos 152 None None - -
02/28/2015 01:43 Ice Warning 11.8F - 32F 45 1% - 99% 0 mhos 150 Yes - - -
02/28/2015 01:33 Ice Warning 11.8F - 32F 50 1% - 99% 0 mhos 150 None None - -
02/28/2015 01:31 Ice Warning 11.8F - 32F 45 1% - 99% 0 mhos 151 Yes - - -
02/28/2015 01:23 Ice Warning 12.2F - 32F 45 0% - 99% 0 mhos 148 Yes - - -
Date/Time
(MST)
Sf
Temp Chem Water Layer Surface Precipitation
Sf Sub Frz Factor Pct Depth IcePct Cond Salin Type Intens Accum Rate
02/28/2015 01:13 Ice Warning 12.4F - 32F 50 0% - 99% 0 mhos 148 Yes - - -
02/28/2015 01:03 Ice Warning 12.4F - 32F 55 0% - 99% 0 mhos 148 Yes - - -
02/28/2015 01:01 Ice Warning 12.4F - 32F 50 0% - 99% 0 mhos 149 None None - -
02/28/2015 00:53 Ice Warning 12.4F - 32F 55 0% - 99% 0 mhos 148 None None - -
02/28/2015 00:43 Ice Warning 12.6F - 32F 50 0% - 99% 0 mhos 146 None None - -
02/28/2015 00:33 Ice Warning 12.6F - 32F 55 0% - 99% 0 mhos 146 None None - -
02/28/2015 00:32 Ice Warning 12.6F - 32F 55 0% - 99% 0 mhos 147 Yes - - -
02/28/2015 00:23 Ice Warning 12.7F - 32F 55 0% - 99% 0 mhos 145 None None - -
02/28/2015 00:13 Ice Warning 12.7F - 32F 55 0% - 99% 0 mhos 146 Yes - - -
02/28/2015 00:12 Ice Warning 12.9F - 32F 55 0% - 99% 0 mhos 144 Yes - - -
02/28/2015 00:03 Ice Warning 12.9F - 32F 60 0% - 99% 0 mhos 147 None None - -
02/27/2015 23:58 Ice Warning 12.9F - 32F 55 0% - 99% 0 mhos 145 None None - -
02/27/2015 23:53 Ice Warning 13.1F - 32F 60 0% - 99% 0 mhos 144 None None - -
02/27/2015 23:43 Ice Warning 13.3F - 32F 55 0% - 99% 0 mhos 144 None None - -
02/27/2015 23:33 Ice Warning 13.3F - 32F 60 0% - 99% 0 mhos 144 None None - -
Date/Time
(MST)
Sf
Temp Chem Water Layer Surface Precipitation
Sf Sub Frz Factor Pct Depth IcePct Cond Salin Type Intens Accum Rate
02/27/2015 23:31 Ice Warning 13.3F - 32F 65 0% - 99% 0 mhos 144 None None - -
02/27/2015 23:23 Ice Warning 13.3F - 32F 60 0% - 99% 0 mhos 145 None None - -
02/27/2015 23:13 Ice Warning 13.5F - 32F 65 0% - 99% 0 mhos 143 Yes - - -
02/27/2015 23:08 Ice Warning 13.5F - 32F 70 0% - 99% 0 mhos 145 Yes - - -
02/27/2015 23:03 Ice Warning 13.8F - 32F 70 0% - 99% 0 mhos 143 None None - -
02/27/2015 22:53 Ice Warning 13.8F - 32F 70 0% - 99% 0 mhos 142 None None - -
02/27/2015 22:43 Ice Warning 14.0F - 32F 65 0% - 99% 0 mhos 141 None None - -
02/27/2015 22:41 Ice Warning 13.8F - 32F 70 0% - 99% 0 mhos 142 Yes - - -
02/27/2015 22:33 Ice Warning 14.2F - 32F 75 0% - 99% 0 mhos 141 None None - -
02/27/2015 22:23 Ice Warning 14.5F - 32F 80 0% - 99% 0 mhos 139 Yes - - -
02/27/2015 22:13 Ice Warning 14.4F - 32F 80 0% - 99% 0 mhos 144 Yes - - -
02/27/2015 22:08 Ice Warning 14.4F - 32F 75 0% - 99% 0 mhos 145 None None - -
02/27/2015 22:03 Ice Warning 14.4F - 32F 85 0% - 99% 0 mhos 143 None None - -
02/27/2015 21:53 Ice Warning 14.4F - 32F 85 0% - 99% 0 mhos 145 None None - -
02/27/2015 21:42 Ice Warning 14.4F - 32F 80 0% - 99% 0 mhos 142 None None - -
Date/Time
(MST)
Sf
Temp Chem Water Layer Surface Precipitation
Sf Sub Frz Factor Pct Depth IcePct Cond Salin Type Intens Accum Rate
02/27/2015 21:32 Ice Warning 14.4F - 32F 85 0% - 99% 0 mhos 143 Yes - - -
02/27/2015 21:32 Ice Warning 14.4F - 32F 85 0% - 99% 0 mhos 144 Yes - - -
02/27/2015 21:22 Ice Warning 14.5F - 32F 85 0% - 99% 0 mhos 150 None None - -
02/27/2015 21:12 Ice Warning 14.5F - 32F 85 0% - 99% 0 mhos 148 None None - -
02/27/2015 21:03 Ice Warning 14.5F - 32F 85 0% - 99% 0 mhos 147 None None - -
02/27/2015 21:02 Ice Warning 14.4F - 32F 85 0% - 99% 0 mhos 149 None None - -
02/27/2015 20:52 Ice Warning 14.4F - 32F 90 0% - 99% 0 mhos 148 None None - -
02/27/2015 20:42 Ice Warning 14.5F - 32F 85 0% - 99% 0 mhos 147 None None - -
02/27/2015 20:33 Ice Warning 14.5F - 32F 95 0% - 99% 0 mhos 150 None None - -
02/27/2015 20:32 Ice Warning 14.4F - 32F 90 1% - 99% 0 mhos 152 None None - -
02/27/2015 20:22 Ice Warning 14.4F - 32F 95 1% - 99% 0 mhos 152 None None - -
02/27/2015 20:12 Ice Warning 14.4F - 32F 90 1% - 99% 0 mhos 156 Yes - - -
02/27/2015 20:06 Ice Warning 14.5F - 32F 90 1% - 99% 0 mhos 154 None None - -
02/27/2015 20:02 Ice Warning 14.7F - 32F 95 1% - 99% 0 mhos 152 Yes - - -
02/27/2015 19:52 Ice Warning 14.9F - 32F 90 1% - 99% 0 mhos 153 None None - -
Date/Time
(MST)
Sf
Temp Chem Water Layer Surface Precipitation
Sf Sub Frz Factor Pct Depth IcePct Cond Salin Type Intens Accum Rate
02/27/2015 19:42 Ice Warning 15.3F - 32F 95 0% - 99% 0 mhos 148 None None - -
02/27/2015 19:36 Ice Warning 15.4F - 32F 95 0% - 99% 0 mhos 149 None None - -
02/27/2015 19:32 Ice Warning 15.8F - 32F 95 0% - 99% 0 mhos 144 None None - -
02/27/2015 19:22 Ice Warning 16.3F - 32F 95 0% - 99% 0 mhos 147 None None - -
02/27/2015 19:12 Ice Warning 16.5F - 32F 95 1% - 99% 0 mhos 153 Yes - - -
02/27/2015 19:06 Ice Warning 16.7F - 32F 95 1% - 99% 0 mhos 154 None None - -
02/27/2015 19:02 Ice Warning 16.9F - 32F 95 1% - 99% 0 mhos 158 None None - -
02/27/2015 18:52 Ice Warning 17.4F - 32F 95 1% - 99% 0 mhos 152 Yes - - -
02/27/2015 18:42 Ice Warning 18.0F - 32F 95 1% - 99% 0 mhos 156 None None - -
02/27/2015 18:41 Ice Warning 18.0F - 32F 95 1% - 99% 0 mhos 156 None None - -
02/27/2015 18:32 Ice Warning 18.0F - 32F 95 1% - 99% 1 mhos 170 None None - -
02/27/2015 18:31 Ice Warning 17.8F - 32F 95 1% - 99% 1 mhos 173 None None - -
02/27/2015 18:22 Ice Warning 18.0F - 32F 95 1% - 99% 1 mhos 172 Yes - - -
02/27/2015 18:12 Ice Warning 18.3F - 32F 95 1% - 99% 1 mhos 170 Yes - - -
02/27/2015 18:11 Ice Warning 18.3F - 32F 95 1% - 99% 1 mhos 170 Yes - - -
Date/Time
(MST)
Sf
Temp Chem Water Layer Surface Precipitation
Sf Sub Frz Factor Pct Depth IcePct Cond Salin Type Intens Accum Rate
02/27/2015 18:02 Ice Warning 19.2F - 32F 95 1% - 99% 1 mhos 162 None None - -
02/27/2015 18:01 Ice Warning 19.2F - 32F 95 1% - 99% 1 mhos 162 None None - -
02/27/2015 17:52 Ice Warning 19.8F - 32F 95 1% - 99% 1 mhos 189 None None - -
02/27/2015 17:42 Ice Warning 20.3F - 32F 95 1% - 99% 1 mhos 152 None None - -
02/27/2015 17:41 Ice Warning 20.3F - 32F 95 1% - 99% 1 mhos 152 None None - -
02/27/2015 17:32 Ice Warning 20.8F - 32F 95 0% - 99% 1 mhos 145 None None - -
02/27/2015 17:31 Ice Warning 20.8F - 32F 95 0% - 99% 1 mhos 145 None None - -
02/27/2015 17:22 Ice Warning 21.9F - 32F 95 0% - 99% 1 mhos 123 None None - -
02/27/2015 17:12 Ice Warning 22.5F - 32F 95 0% - 99% 1 mhos 113 None None - -
02/27/2015 17:11 Ice Warning 22.5F - 32F 95 0% - 99% 1 mhos 113 None None - -
02/27/2015 17:02 Ice Warning 23.4F - 32F 95 0% - 99% 1 mhos 109 None None - -
02/27/2015 17:01 Ice Warning 23.4F - 32F 95 0% - 99% 1 mhos 109 None None - -
02/27/2015 16:51 Ice Warning 24.4F - 32F 95 0% - 99% 1 mhos 103 Yes - - -
02/27/2015 16:41 Ice Warning 24.8F - 32F 95 0% - 99% 1 mhos 105 None None - -
02/27/2015 16:41 Ice Warning 24.8F - 32F 95 0% - 99% 1 mhos 105 None None - -
Date/Time
(MST)
Sf
Temp Chem Water Layer Surface Precipitation
Sf Sub Frz Factor Pct Depth IcePct Cond Salin Type Intens Accum Rate
02/27/2015 16:31 Ice Warning 25.2F - 32F 95 1% - 98% 1 mhos 172 None None - -
02/27/2015 16:31 Ice Warning 25.2F - 32F 95 1% - 98% 1 mhos 172 None None - -
02/27/2015 16:21 Ice Warning 26.8F - 32F 95 0% - 100% 0 mhos 4 None None - -
02/27/2015 16:11 Ice Warning 30.0F - 32F 5 0% - 100% 0 mhos 0 Yes - - -
02/27/2015 16:01 Dry 31.8F - - - - - - 0 mhos 0 None None - -
02/27/2015 16:01 Dry 31.8F - - - - - - 0 mhos 0 None None - -
02/27/2015 15:51 Dry 33.6F - - - - - - 0 mhos 0 None None - -
02/27/2015 15:41 Dry 35.2F - - - - - - 0 mhos 0 None None - -
02/27/2015 15:41 Dry 35.2F - - - - - - 0 mhos 0 None None - -
02/27/2015 15:31 Dry 37.2F - - - - - - 0 mhos 0 None None - -
02/27/2015 15:31 Dry 37.2F - - - - - - 0 mhos 0 None None - -
02/27/2015 15:21 Dry 37.0F - - - - - - 0 mhos 0 None None - -
02/27/2015 15:11 Dry 39.4F - - - - - - 0 mhos 0 None None - -
02/27/2015 15:11 Dry 39.4F - - - - - - 0 mhos 0 None None - -
02/27/2015 15:01 Dry 41.4F - - - - - - 0 mhos 0 None None - -
Date/Time
(MST)
Sf
Temp Chem Water Layer Surface Precipitation
Sf Sub Frz Factor Pct Depth IcePct Cond Salin Type Intens Accum Rate
02/27/2015 15:01 Dry 41.4F - - - - - - 0 mhos 0 None None - -
02/27/2015 14:51 Dry 42.6F - - - - - - 0 mhos 0 None None - -
02/27/2015 14:41 Dry 42.4F - - - - - - 0 mhos 0 None None - -
02/27/2015 14:41 Dry 42.4F - - - - - - 0 mhos 0 None None - -
02/27/2015 14:31 Dry 40.3F - - - - - - 0 mhos 0 None None - -
02/27/2015 14:31 Dry 40.3F - - - - - - 0 mhos 0 None None - -
02/27/2015 14:21 Dry 40.1F - - - - - - 0 mhos 0 None None - -
02/27/2015 14:11 Dry 39.2F - - - - - - 0 mhos 0 None None - -
02/27/2015 14:11 Dry 39.2F - - - - - - 0 mhos 0 None None - -
02/27/2015 14:01 Dry 38.7F - - - - - - 0 mhos 0 None None - -
02/27/2015 14:01 Dry 38.7F - - - - - - 0 mhos 0 None None - -
02/27/2015 13:51 Dry 40.6F - - - - - - 0 mhos 0 None None - -
02/27/2015 13:41 Dry 39.0F - - - - - - 0 mhos 0 None None - -
02/27/2015 13:41 Dry 39.2F - - - - - - 0 mhos 0 None None - -
02/27/2015 13:31 Dry 43.2F - - - - - - 0 mhos 0 None None - -
Date/Time
(MST)
Sf
Temp Chem Water Layer Surface Precipitation
Sf Sub Frz Factor Pct Depth IcePct Cond Salin Type Intens Accum Rate
02/27/2015 13:31 Dry 43.2F - - - - - - 0 mhos 0 None None - -
02/27/2015 13:21 Dry 45.7F - - - - - - 0 mhos 0 Yes - - -
02/27/2015 13:11 Dry 44.4F - - - - - - 0 mhos 0 None None - -
02/27/2015 13:11 Dry 44.1F - - - - - - 0 mhos 0 Yes - - -
02/27/2015 13:01 Dry 42.8F - - - - - - 0 mhos 0 None None - -
02/27/2015 12:51 Dry 41.4F - - - - - - 0 mhos 0 None None - -
02/27/2015 12:41 Dry 40.5F - - - - - - 0 mhos 0 None None - -
02/27/2015 12:41 Dry 40.5F - - - - - - 0 mhos 0 None None - -
02/27/2015 12:31 Dry 38.7F - - - - - - 0 mhos 0 None None - -
02/27/2015 12:31 Dry 38.7F - - - - - - 0 mhos 0 None None - -
02/27/2015 12:21 Dry 37.2F - - - - - - 0 mhos 0 None None - -
02/27/2015 12:11 Dry 34.9F - - - - - - 0 mhos 0 None None - -
02/27/2015 12:11 Dry 34.5F - - - - - - 0 mhos 0 None None - -
02/27/2015 12:01 Dry 30.7F - - - - - - 0 mhos 0 None None - -
02/27/2015 12:01 Dry 30.7F - - - - - - 0 mhos 0 None None - -
Date/Time
(MST)
Sf
Temp Chem Water Layer Surface Precipitation
Sf Sub Frz Factor Pct Depth IcePct Cond Salin Type Intens Accum Rate
02/27/2015 11:51 Dry 25.0F - - - - - - 0 mhos 2 None None - -
02/27/2015 11:41 Dry 20.1F - - - - - - 0 mhos 7 None None - -
02/27/2015 11:40 Dry 21.0F - - - - - - 0 mhos 8 None None - -
02/27/2015 11:31 Dry 15.1F - - - - - - 0 mhos 12 None None - -
02/27/2015 11:30 Dry 15.1F - - - - - - 0 mhos 12 None None - -
02/27/2015 11:20 Dry 14.5F - - - - - - 0 mhos 3 None None - -
02/27/2015 11:12 Dry 14.4F - - - - - - 0 mhos 2 None None - -
02/27/2015 11:10 Dry 14.4F - - - - - - 0 mhos 2 None None - -
02/27/2015 11:01 Dry 13.6F - - - - - - 0 mhos 1 None None - -
02/27/2015 11:00 Dry 13.6F - - - - - - 0 mhos 1 None None - -
02/27/2015 10:50 Dry 13.3F - - - - - - 0 mhos 1 None None - -
02/27/2015 10:41 Dry 12.9F - - - - - - 0 mhos 1 None None - -
02/27/2015 10:40 Dry 12.9F - - - - - - 0 mhos 1 None None - -
02/27/2015 10:31 Dry 12.6F - - - - - - 0 mhos 1 None None - -
02/27/2015 10:30 Dry 12.6F - - - - - - 0 mhos 1 None None - -
Date/Time
(MST)
Sf
Temp Chem Water Layer Surface Precipitation
Sf Sub Frz Factor Pct Depth IcePct Cond Salin Type Intens Accum Rate
02/27/2015 10:20 Dry 12.2F - - - - - - 0 mhos 1 None None - -
02/27/2015 10:11 Dry 12.4F - - - - - - 0 mhos 1 None None - -
02/27/2015 10:10 Dry 12.4F - - - - - - 0 mhos 1 None None - -
02/27/2015 10:01 Dry 12.4F - - - - - - 0 mhos 1 None None - -
02/27/2015 10:00 Dry 12.4F - - - - - - 0 mhos 1 None None - -
02/27/2015 09:50 Dry 12.0F - - - - - - 0 mhos 1 None None - -
02/27/2015 09:41 Dry 12.0F - - - - - - 0 mhos 1 None None - -
02/27/2015 09:40 Dry 12.0F - - - - - - 0 mhos 1 None None - -
02/27/2015 09:31 Dry 12.0F - - - - - - 0 mhos 1 None None - -
02/27/2015 09:30 Dry 11.8F - - - - - - 0 mhos 1 None None - -
02/27/2015 09:20 Dry 12.0F - - - - - - 0 mhos 1 None None - -
02/27/2015 09:11 Ice Watch 11.3F - - 5 - - - 0 mhos 2 None None - -
02/27/2015 09:10 Ice Watch 10.9F - - 5 - - - 0 mhos 2 None None - -
02/27/2015 09:01 Ice Watch 10.2F - - 5 - - - 0 mhos 2 None None - -
02/27/2015 09:00 Ice Watch 10.2F - - 5 - - - 0 mhos 2 None None - -
Date/Time
(MST)
Sf
Temp Chem Water Layer Surface Precipitation
Sf Sub Frz Factor Pct Depth IcePct Cond Salin Type Intens Accum Rate
02/27/2015 08:50 Ice Watch 9.5F - - 5 - - - 0 mhos 2 None None - -
02/27/2015 08:41 Ice Watch 9.5F - - 5 - - - 0 mhos 2 None None - -
02/27/2015 08:40 Ice Watch 9.3F - - 5 - - - 0 mhos 2 None None - -
02/27/2015 08:31 Ice Watch 9.1F - - 5 - - - 0 mhos 3 None None - -
02/27/2015 08:30 Ice Watch 9.0F - - 5 - - - 0 mhos 3 None None - -
02/27/2015 08:20 Ice Watch 9.0F - - 5 - - - 0 mhos 3 None None - -
02/27/2015 08:11 Ice Watch 9.0F - - 5 - - - 0 mhos 4 None None - -
02/27/2015 08:10 Ice Watch 9.0F - - 5 - - - 0 mhos 4 None None - -
02/27/2015 08:01 Ice Watch 8.8F - - 5 - - - 0 mhos 5 None None - -
02/27/2015 08:00 Ice Watch 8.8F - - 5 - - - 0 mhos 6 None None - -
02/27/2015 07:50 Dry 8.4F - - - - - - 0 mhos 10 None None - -
02/27/2015 07:41 Ice Watch 8.4F - - 5 - - - 0 mhos 14 None None - -
02/27/2015 07:40 Dry 8.4F - - - - - - 0 mhos 14 None None - -
02/27/2015 07:31 Ice Watch 8.2F - - 5 - - - 0 mhos 17 None None - -
02/27/2015 07:30 Ice Watch 8.2F - - 5 - - - 0 mhos 17 None None - -
Date/Time
(MST)
Sf
Temp Chem Water Layer Surface Precipitation
Sf Sub Frz Factor Pct Depth IcePct Cond Salin Type Intens Accum Rate
02/27/2015 07:20 Ice Watch 7.9F - - 5 - - - 0 mhos 19 None None - -
02/27/2015 07:11 Ice Watch 7.9F - - 5 - - - 0 mhos 22 None None - -
02/27/2015 07:10 Ice Watch 7.9F - - 5 - - - 0 mhos 22 None None - -
02/27/2015 07:01 Ice Watch 7.9F - - 5 - - - 0 mhos 25 None None - -
02/27/2015 07:00 Ice Watch 7.9F - - 5 - - - 0 mhos 25 None None - -
Change End Date:
Copyright © 1998-2005 Surface Systems, Inc.
All Rights Reserved
Send comments about the data to:
SCAN Web ® is a registered trademark of Surface Systems, Inc.
SCAN Web Version 5.6